createdAt,value
2017-03-31T00:00:48.041Z,0
2017-03-31T00:01:57.337Z,0
2017-03-31T00:03:06.311Z,0
2017-03-31T00:04:15.268Z,0
2017-03-31T00:05:24.224Z,0
2017-03-31T00:06:33.183Z,0
2017-03-31T00:07:42.387Z,0
2017-03-31T00:08:51.343Z,0
2017-03-31T00:10:00.305Z,0
2017-03-31T00:11:09.262Z,0
2017-03-31T00:12:18.218Z,0
2017-03-31T00:13:27.480Z,0
2017-03-31T00:14:36.432Z,0
2017-03-31T00:15:45.471Z,0
2017-03-31T00:16:54.425Z,0
2017-03-31T00:18:03.383Z,0
2017-03-31T00:19:12.590Z,0
2017-03-31T00:20:21.546Z,0
2017-03-31T00:21:30.508Z,0
2017-03-31T00:22:39.470Z,0
2017-03-31T00:23:48.517Z,0
2017-03-31T00:24:57.860Z,0
2017-03-31T00:26:06.816Z,0
2017-03-31T00:27:15.778Z,0
2017-03-31T00:28:24.733Z,0
2017-03-31T00:29:33.687Z,0
2017-03-31T00:30:43.028Z,0
2017-03-31T00:31:51.983Z,0
2017-03-31T00:33:01.033Z,0
2017-03-31T00:34:09.988Z,0
2017-03-31T00:35:18.946Z,0
2017-03-31T00:36:28.206Z,0
2017-03-31T00:37:37.255Z,0
2017-03-31T00:38:46.216Z,0
2017-03-31T00:39:55.179Z,0
2017-03-31T00:41:04.137Z,0
2017-03-31T00:42:13.392Z,0
2017-03-31T00:43:22.342Z,0
2017-03-31T00:44:31.302Z,0
2017-03-31T00:45:40.347Z,0
2017-03-31T00:46:49.390Z,0
2017-03-31T00:47:58.643Z,0
2017-03-31T00:49:07.692Z,0
2017-03-31T00:50:16.647Z,0
2017-03-31T00:51:25.601Z,0
2017-03-31T00:52:34.556Z,0
2017-03-31T00:53:43.761Z,0
2017-03-31T00:54:52.717Z,0
2017-03-31T00:56:01.679Z,0
2017-03-31T00:57:10.634Z,0
2017-03-31T00:58:19.593Z,0
2017-03-31T00:59:28.939Z,0
2017-03-31T01:00:37.901Z,0
2017-03-31T01:01:46.861Z,0
2017-03-31T01:02:55.814Z,0
2017-03-31T01:04:05.109Z,0
2017-03-31T01:05:14.348Z,0
2017-03-31T01:06:23.310Z,0
2017-03-31T01:07:32.259Z,0
2017-03-31T01:08:41.218Z,0
2017-03-31T01:09:50.175Z,0
2017-03-31T01:10:59.390Z,0
2017-03-31T01:12:08.342Z,0
2017-03-31T01:13:17.299Z,0
2017-03-31T01:14:26.257Z,0
2017-03-31T01:15:35.218Z,0
2017-03-31T01:16:44.474Z,0
2017-03-31T01:17:53.432Z,0
2017-03-31T01:19:02.382Z,0
2017-03-31T01:20:11.336Z,0
2017-03-31T01:21:20.292Z,0
2017-03-31T01:22:29.506Z,0
2017-03-31T01:23:38.554Z,0
2017-03-31T01:24:47.508Z,0
2017-03-31T01:25:56.465Z,0
2017-03-31T01:27:05.417Z,0
2017-03-31T01:28:14.646Z,0
2017-03-31T01:29:23.602Z,0
2017-03-31T01:30:32.555Z,0
2017-03-31T01:31:41.510Z,0
2017-03-31T01:32:50.468Z,0
2017-03-31T01:33:59.686Z,0
2017-03-31T01:35:08.644Z,0
2017-03-31T01:36:17.598Z,0
2017-03-31T01:37:26.554Z,0
2017-03-31T01:38:35.520Z,0
2017-03-31T01:39:44.775Z,0
2017-03-31T01:40:53.731Z,0
2017-03-31T01:42:02.688Z,0
2017-03-31T01:43:11.639Z,0
2017-03-31T01:44:20.589Z,0
2017-03-31T01:45:29.798Z,0
2017-03-31T01:46:38.762Z,0
2017-03-31T01:47:47.716Z,0
2017-03-31T01:48:56.672Z,0
2017-03-31T01:50:05.635Z,0
2017-03-31T01:51:14.899Z,0
2017-03-31T01:52:23.854Z,0
2017-03-31T01:53:32.811Z,0
2017-03-31T01:54:41.768Z,0
2017-03-31T01:55:50.723Z,0
2017-03-31T01:56:59.977Z,0
2017-03-31T01:58:08.935Z,0
2017-03-31T01:59:17.891Z,0
2017-03-31T02:00:26.856Z,0
2017-03-31T02:01:35.810Z,0
2017-03-31T02:02:45.066Z,0
2017-03-31T02:03:54.019Z,0
2017-03-31T02:05:02.978Z,0
2017-03-31T02:06:11.934Z,0
2017-03-31T02:07:20.892Z,0
2017-03-31T02:08:30.145Z,0
2017-03-31T02:09:39.112Z,0
2017-03-31T02:10:48.065Z,0
2017-03-31T02:11:57.019Z,0
2017-03-31T02:13:05.980Z,0
2017-03-31T02:14:15.239Z,0
2017-03-31T02:15:24.193Z,0
2017-03-31T02:16:33.158Z,0
2017-03-31T02:17:42.121Z,0
2017-03-31T02:18:51.083Z,0
2017-03-31T02:20:01.030Z,0
2017-03-31T02:21:10.023Z,0
2017-03-31T02:22:18.977Z,0
2017-03-31T02:23:27.935Z,0
2017-03-31T02:24:36.888Z,0
2017-03-31T02:25:46.149Z,0
2017-03-31T02:26:55.104Z,0
2017-03-31T02:28:04.056Z,0
2017-03-31T02:29:13.010Z,0
2017-03-31T02:30:21.966Z,0
2017-03-31T02:31:31.225Z,0
2017-03-31T02:32:40.183Z,0
2017-03-31T02:33:49.141Z,0
2017-03-31T02:34:58.100Z,0
2017-03-31T02:36:07.063Z,0
2017-03-31T02:37:16.321Z,0
2017-03-31T02:38:25.289Z,0
2017-03-31T02:39:34.245Z,0
2017-03-31T02:40:43.199Z,0
2017-03-31T02:41:52.153Z,0
2017-03-31T02:43:01.418Z,0
2017-03-31T02:44:10.372Z,0
2017-03-31T02:45:19.330Z,0
2017-03-31T02:46:28.283Z,0
2017-03-31T02:47:37.236Z,0
2017-03-31T02:48:46.583Z,0
2017-03-31T02:49:55.542Z,0
2017-03-31T02:51:04.500Z,0
2017-03-31T02:52:13.459Z,0
2017-03-31T02:53:22.412Z,0
2017-03-31T02:54:31.666Z,0
2017-03-31T02:55:40.631Z,0
2017-03-31T02:56:49.599Z,0
2017-03-31T02:57:58.558Z,0
2017-03-31T02:59:07.513Z,0
2017-03-31T03:00:16.778Z,0
2017-03-31T03:01:25.737Z,0
2017-03-31T03:02:34.703Z,0
2017-03-31T03:03:43.661Z,0
2017-03-31T03:04:52.627Z,0
2017-03-31T03:06:01.883Z,0
2017-03-31T03:07:10.841Z,0
2017-03-31T03:08:19.806Z,0
2017-03-31T03:09:28.758Z,0
2017-03-31T03:10:37.716Z,0
2017-03-31T03:11:46.974Z,0
2017-03-31T03:12:55.935Z,0
2017-03-31T03:14:04.971Z,0
2017-03-31T03:15:13.926Z,0
2017-03-31T03:16:22.880Z,0
2017-03-31T03:17:32.151Z,0
2017-03-31T03:18:41.107Z,0
2017-03-31T03:19:50.065Z,0
2017-03-31T03:20:59.019Z,0
2017-03-31T03:22:07.979Z,0
2017-03-31T03:23:17.238Z,0
2017-03-31T03:24:26.192Z,0
2017-03-31T03:25:35.150Z,0
2017-03-31T03:26:44.102Z,0
2017-03-31T03:27:53.062Z,0
2017-03-31T03:29:02.315Z,0
2017-03-31T03:30:11.279Z,0
2017-03-31T03:31:20.235Z,0
2017-03-31T03:32:29.191Z,0
2017-03-31T03:33:38.158Z,0
2017-03-31T03:34:47.416Z,0
2017-03-31T03:35:56.372Z,0
2017-03-31T03:37:05.327Z,0
2017-03-31T03:38:14.278Z,0
2017-03-31T03:39:23.232Z,0
2017-03-31T03:40:32.436Z,0
2017-03-31T03:41:41.389Z,0
2017-03-31T03:42:50.349Z,0
2017-03-31T03:43:59.304Z,0
2017-03-31T03:45:08.263Z,0
2017-03-31T03:46:17.523Z,0
2017-03-31T03:47:26.510Z,0
2017-03-31T03:48:35.463Z,0
2017-03-31T03:49:44.414Z,0
2017-03-31T03:50:59.638Z,0
2017-03-31T03:52:08.892Z,0
2017-03-31T03:53:17.851Z,0
2017-03-31T03:54:26.807Z,0
2017-03-31T03:55:35.761Z,0
2017-03-31T03:56:44.720Z,0
2017-03-31T03:57:53.961Z,0
2017-03-31T03:59:02.914Z,0
2017-03-31T04:00:11.870Z,0
2017-03-31T04:01:20.825Z,0
2017-03-31T04:02:29.808Z,0
2017-03-31T04:03:39.012Z,0
2017-03-31T04:04:48.003Z,0
2017-03-31T04:05:56.955Z,0
2017-03-31T04:07:05.912Z,0
2017-03-31T04:08:14.870Z,0
2017-03-31T04:09:24.131Z,0
2017-03-31T04:10:33.088Z,0
2017-03-31T04:11:42.131Z,0
2017-03-31T04:12:51.736Z,0
2017-03-31T04:14:00.699Z,0
2017-03-31T04:15:09.905Z,0
2017-03-31T04:16:18.870Z,0
2017-03-31T04:17:27.824Z,0
2017-03-31T04:18:36.778Z,0
2017-03-31T04:19:45.828Z,0
2017-03-31T04:20:55.037Z,0
2017-03-31T04:22:03.997Z,0
2017-03-31T04:23:12.953Z,0
2017-03-31T04:24:21.907Z,0
2017-03-31T04:25:30.861Z,0
2017-03-31T04:26:40.074Z,0
2017-03-31T04:27:49.111Z,0
2017-03-31T04:28:58.068Z,0
2017-03-31T04:30:07.019Z,0
2017-03-31T04:31:15.974Z,0
2017-03-31T04:32:25.175Z,0
2017-03-31T04:33:34.130Z,0
2017-03-31T04:34:43.087Z,0
2017-03-31T04:35:52.043Z,0
2017-03-31T04:37:01.002Z,0
2017-03-31T04:38:10.208Z,0
2017-03-31T04:39:19.160Z,0
2017-03-31T04:40:28.111Z,0
2017-03-31T04:41:37.152Z,0
2017-03-31T04:42:46.104Z,0
2017-03-31T04:43:55.313Z,0
2017-03-31T04:45:04.354Z,0
2017-03-31T04:46:13.398Z,0
2017-03-31T04:47:22.356Z,5
2017-03-31T04:48:31.312Z,5
2017-03-31T04:49:40.603Z,5
2017-03-31T04:50:49.556Z,5
2017-03-31T04:51:58.514Z,5
2017-03-31T04:53:07.472Z,5
2017-03-31T04:54:16.430Z,5
2017-03-31T04:55:25.662Z,5
2017-03-31T04:56:34.622Z,5
2017-03-31T04:57:43.584Z,10
2017-03-31T04:58:52.540Z,10
2017-03-31T05:00:01.497Z,10
2017-03-31T05:01:11.034Z,10
2017-03-31T05:02:20.177Z,10
2017-03-31T05:03:29.136Z,10
2017-03-31T05:04:38.094Z,10
2017-03-31T05:05:47.055Z,15
2017-03-31T05:06:56.263Z,15
2017-03-31T05:08:05.542Z,15
2017-03-31T05:09:14.585Z,15
2017-03-31T05:10:23.628Z,15
2017-03-31T05:11:32.582Z,15
2017-03-31T05:12:41.788Z,20
2017-03-31T05:13:50.741Z,20
2017-03-31T05:14:59.695Z,20
2017-03-31T05:16:08.651Z,20
2017-03-31T05:17:17.607Z,20
2017-03-31T05:18:26.809Z,25
2017-03-31T05:19:35.774Z,25
2017-03-31T05:20:44.819Z,25
2017-03-31T05:21:53.776Z,25
2017-03-31T05:23:02.729Z,25
2017-03-31T05:24:11.940Z,25
2017-03-31T05:25:20.897Z,25
2017-03-31T05:26:29.877Z,25
2017-03-31T05:27:38.838Z,25
2017-03-31T05:28:47.794Z,25
2017-03-31T05:29:56.995Z,30
2017-03-31T05:31:05.943Z,30
2017-03-31T05:32:14.901Z,30
2017-03-31T05:33:23.855Z,30
2017-03-31T05:34:32.807Z,30
2017-03-31T05:35:42.018Z,30
2017-03-31T05:36:50.974Z,30
2017-03-31T05:38:00.343Z,30
2017-03-31T05:39:09.303Z,35
2017-03-31T05:40:18.257Z,35
2017-03-31T05:41:27.465Z,35
2017-03-31T05:42:36.422Z,35
2017-03-31T05:43:45.461Z,35
2017-03-31T05:44:54.421Z,35
2017-03-31T05:46:03.463Z,35
2017-03-31T05:47:12.668Z,40
2017-03-31T05:48:21.620Z,40
2017-03-31T05:49:30.576Z,40
2017-03-31T05:50:39.621Z,40
2017-03-31T05:51:48.614Z,40
2017-03-31T05:52:57.907Z,40
2017-03-31T05:54:06.867Z,40
2017-03-31T05:55:15.825Z,40
2017-03-31T05:56:24.790Z,40
2017-03-31T05:57:33.748Z,40
2017-03-31T05:58:42.962Z,45
2017-03-31T05:59:52.007Z,45
2017-03-31T06:01:00.970Z,45
2017-03-31T06:02:09.921Z,45
2017-03-31T06:03:18.874Z,45
2017-03-31T06:04:28.082Z,45
2017-03-31T06:05:37.042Z,50
2017-03-31T06:06:46.087Z,50
2017-03-31T06:07:55.047Z,50
2017-03-31T06:09:04.009Z,50
2017-03-31T06:10:13.214Z,50
2017-03-31T06:11:22.171Z,50
2017-03-31T06:12:31.124Z,50
2017-03-31T06:13:40.083Z,50
2017-03-31T06:14:49.125Z,50
2017-03-31T06:15:58.661Z,50
2017-03-31T06:17:07.623Z,55
2017-03-31T06:18:16.577Z,55
2017-03-31T06:19:25.533Z,55
2017-03-31T06:20:34.514Z,55
2017-03-31T06:21:43.723Z,55
2017-03-31T06:22:52.675Z,55
2017-03-31T06:24:01.629Z,55
2017-03-31T06:25:10.584Z,60
2017-03-31T06:26:19.568Z,60
2017-03-31T06:27:28.779Z,60
2017-03-31T06:28:37.732Z,60
2017-03-31T06:29:46.780Z,65
2017-03-31T06:30:55.734Z,65
2017-03-31T06:32:04.695Z,65
2017-03-31T06:33:13.911Z,65
2017-03-31T06:34:22.872Z,70
2017-03-31T06:35:31.832Z,70
2017-03-31T06:36:40.785Z,70
2017-03-31T06:37:49.736Z,70
2017-03-31T06:38:58.941Z,70
2017-03-31T06:40:07.907Z,75
2017-03-31T06:41:16.862Z,75
2017-03-31T06:42:25.818Z,75
2017-03-31T06:43:34.773Z,75
2017-03-31T06:44:43.981Z,75
2017-03-31T06:45:52.971Z,75
2017-03-31T06:47:01.920Z,75
2017-03-31T06:48:10.884Z,75
2017-03-31T06:49:19.842Z,75
2017-03-31T06:50:29.047Z,75
2017-03-31T06:51:38.001Z,75
2017-03-31T06:52:47.044Z,75
2017-03-31T06:53:56.000Z,80
2017-03-31T06:55:05.040Z,80
2017-03-31T06:56:14.255Z,80
2017-03-31T06:57:23.211Z,80
2017-03-31T06:58:32.174Z,80
2017-03-31T06:59:41.129Z,80
2017-03-31T07:00:50.083Z,80
2017-03-31T07:01:59.298Z,85
2017-03-31T07:03:08.255Z,85
2017-03-31T07:04:17.213Z,85
2017-03-31T07:05:26.165Z,85
2017-03-31T07:06:35.127Z,85
2017-03-31T07:07:44.349Z,85
2017-03-31T07:08:53.310Z,85
2017-03-31T07:10:02.270Z,85
2017-03-31T07:11:11.320Z,90
2017-03-31T07:12:20.277Z,90
2017-03-31T07:13:29.488Z,90
2017-03-31T07:14:38.449Z,90
2017-03-31T07:15:47.408Z,90
2017-03-31T07:16:56.449Z,90
2017-03-31T07:18:05.497Z,90
2017-03-31T07:19:14.800Z,90
2017-03-31T07:20:23.762Z,90
2017-03-31T07:21:32.724Z,90
2017-03-31T07:22:41.682Z,90
2017-03-31T07:23:50.638Z,90
2017-03-31T07:24:59.841Z,90
2017-03-31T07:26:08.805Z,90
2017-03-31T07:27:17.767Z,90
2017-03-31T07:28:26.737Z,90
2017-03-31T07:29:35.697Z,95
2017-03-31T07:30:44.905Z,95
2017-03-31T07:31:53.950Z,95
2017-03-31T07:33:02.909Z,95
2017-03-31T07:34:11.875Z,100
2017-03-31T07:35:20.831Z,100
2017-03-31T07:36:30.041Z,100
2017-03-31T07:37:39.085Z,100
2017-03-31T07:38:48.038Z,100
2017-03-31T07:39:56.994Z,100
2017-03-31T07:41:06.036Z,105
2017-03-31T07:42:15.254Z,105
2017-03-31T07:43:24.219Z,100
2017-03-31T07:44:33.274Z,100
2017-03-31T07:45:42.228Z,100
2017-03-31T07:46:51.336Z,105
2017-03-31T07:48:00.543Z,105
2017-03-31T07:49:09.508Z,105
2017-03-31T07:50:18.469Z,105
2017-03-31T07:51:27.424Z,105
2017-03-31T07:52:36.713Z,110
2017-03-31T07:53:45.920Z,110
2017-03-31T07:54:54.878Z,110
2017-03-31T07:56:03.839Z,110
2017-03-31T07:57:12.796Z,110
2017-03-31T07:58:21.842Z,115
2017-03-31T07:59:31.049Z,115
2017-03-31T08:00:40.009Z,115
2017-03-31T08:01:48.967Z,120
2017-03-31T08:02:57.925Z,120
2017-03-31T08:04:06.887Z,120
2017-03-31T08:05:16.097Z,125
2017-03-31T08:06:25.137Z,125
2017-03-31T08:07:34.095Z,130
2017-03-31T08:08:43.054Z,130
2017-03-31T08:09:52.012Z,135
2017-03-31T08:11:01.309Z,135
2017-03-31T08:12:10.265Z,140
2017-03-31T08:13:19.226Z,140
2017-03-31T08:14:28.197Z,140
2017-03-31T08:15:37.157Z,145
2017-03-31T08:16:46.376Z,145
2017-03-31T08:17:55.333Z,145
2017-03-31T08:19:04.295Z,150
2017-03-31T08:20:13.260Z,150
2017-03-31T08:21:22.224Z,150
2017-03-31T08:22:31.437Z,150
2017-03-31T08:23:40.497Z,145
2017-03-31T08:24:49.455Z,145
2017-03-31T08:25:58.416Z,145
2017-03-31T08:27:07.375Z,145
2017-03-31T08:28:16.583Z,145
2017-03-31T08:29:25.537Z,145
2017-03-31T08:30:34.501Z,140
2017-03-31T08:31:43.455Z,140
2017-03-31T08:32:52.504Z,145
2017-03-31T08:34:01.711Z,140
2017-03-31T08:35:10.846Z,140
2017-03-31T08:36:19.808Z,140
2017-03-31T08:37:28.768Z,140
2017-03-31T08:38:37.726Z,140
2017-03-31T08:39:46.939Z,145
2017-03-31T08:40:55.897Z,145
2017-03-31T08:42:04.937Z,150
2017-03-31T08:43:13.895Z,150
2017-03-31T08:44:22.860Z,150
2017-03-31T08:45:32.075Z,155
2017-03-31T08:46:41.159Z,155
2017-03-31T08:47:50.123Z,160
2017-03-31T08:48:59.082Z,160
2017-03-31T08:50:08.045Z,160
2017-03-31T08:51:17.255Z,165
2017-03-31T08:52:26.213Z,165
2017-03-31T08:53:35.175Z,170
2017-03-31T08:54:44.138Z,170
2017-03-31T08:55:53.106Z,170
2017-03-31T08:57:02.366Z,170
2017-03-31T08:58:11.324Z,170
2017-03-31T08:59:20.285Z,170
2017-03-31T09:00:29.252Z,170
2017-03-31T09:01:38.215Z,165
2017-03-31T09:02:47.421Z,165
2017-03-31T09:03:56.379Z,170
2017-03-31T09:05:05.367Z,170
2017-03-31T09:06:14.419Z,170
2017-03-31T09:07:23.380Z,170
2017-03-31T09:08:32.641Z,165
2017-03-31T09:09:41.606Z,165
2017-03-31T09:10:50.659Z,170
2017-03-31T09:11:59.623Z,170
2017-03-31T09:13:08.601Z,170
2017-03-31T09:14:17.818Z,170
2017-03-31T09:15:26.778Z,170
2017-03-31T09:16:35.742Z,170
2017-03-31T09:17:44.705Z,170
2017-03-31T09:18:53.660Z,170
2017-03-31T09:20:03.199Z,170
2017-03-31T09:21:12.255Z,170
2017-03-31T09:22:21.215Z,175
2017-03-31T09:23:30.170Z,170
2017-03-31T09:24:39.131Z,170
2017-03-31T09:25:48.342Z,165
2017-03-31T09:26:57.311Z,165
2017-03-31T09:28:06.363Z,165
2017-03-31T09:29:15.326Z,165
2017-03-31T09:30:24.287Z,170
2017-03-31T09:31:33.494Z,170
2017-03-31T09:32:42.454Z,165
2017-03-31T09:33:51.414Z,165
2017-03-31T09:35:01.109Z,165
2017-03-31T09:36:10.067Z,170
2017-03-31T09:37:19.277Z,170
2017-03-31T09:38:28.236Z,170
2017-03-31T09:39:37.206Z,170
2017-03-31T09:40:46.169Z,180
2017-03-31T09:41:55.132Z,180
2017-03-31T09:43:04.393Z,175
2017-03-31T09:44:13.355Z,175
2017-03-31T09:45:22.327Z,175
2017-03-31T09:46:31.377Z,175
2017-03-31T09:47:40.338Z,175
2017-03-31T09:48:49.640Z,175
2017-03-31T09:49:58.960Z,170
2017-03-31T09:51:07.939Z,170
2017-03-31T09:52:16.986Z,170
2017-03-31T09:53:25.947Z,170
2017-03-31T09:54:35.161Z,165
2017-03-31T09:55:44.132Z,165
2017-03-31T09:56:53.096Z,165
2017-03-31T09:58:02.058Z,170
2017-03-31T09:59:11.018Z,170
2017-03-31T10:00:20.235Z,165
2017-03-31T10:01:29.201Z,165
2017-03-31T10:02:38.163Z,165
2017-03-31T10:03:47.127Z,170
2017-03-31T10:04:56.089Z,170
2017-03-31T10:06:05.309Z,170
2017-03-31T10:07:14.356Z,165
2017-03-31T10:08:23.407Z,165
2017-03-31T10:09:32.366Z,160
2017-03-31T10:10:41.331Z,160
2017-03-31T10:11:50.547Z,165
2017-03-31T10:12:59.593Z,170
2017-03-31T10:14:08.556Z,170
2017-03-31T10:15:17.522Z,175
2017-03-31T10:16:26.484Z,175
2017-03-31T10:17:35.695Z,180
2017-03-31T10:18:44.739Z,185
2017-03-31T10:19:53.695Z,190
2017-03-31T10:21:02.684Z,190
2017-03-31T10:22:11.658Z,190
2017-03-31T10:23:20.875Z,185
2017-03-31T10:24:29.833Z,185
2017-03-31T10:25:38.799Z,180
2017-03-31T10:26:47.759Z,180
2017-03-31T10:27:56.724Z,180
2017-03-31T10:29:06.026Z,180
2017-03-31T10:30:14.989Z,180
2017-03-31T10:31:23.953Z,180
2017-03-31T10:32:32.917Z,180
2017-03-31T10:33:41.881Z,180
2017-03-31T10:34:51.095Z,180
2017-03-31T10:36:00.061Z,185
2017-03-31T10:37:09.025Z,185
2017-03-31T10:38:17.990Z,190
2017-03-31T10:39:26.953Z,190
2017-03-31T10:40:36.166Z,190
2017-03-31T10:41:45.124Z,185
2017-03-31T10:42:54.175Z,185
2017-03-31T10:44:03.231Z,185
2017-03-31T10:45:12.195Z,185
2017-03-31T10:46:21.407Z,185
2017-03-31T10:47:30.373Z,185
2017-03-31T10:48:39.339Z,185
2017-03-31T10:49:48.303Z,185
2017-03-31T10:50:57.267Z,190
2017-03-31T10:52:06.538Z,185
2017-03-31T10:53:15.542Z,185
2017-03-31T10:54:24.507Z,185
2017-03-31T10:55:33.468Z,185
2017-03-31T10:56:42.427Z,185
2017-03-31T10:57:51.638Z,185
2017-03-31T10:59:00.681Z,185
2017-03-31T11:00:09.744Z,185
2017-03-31T11:01:18.707Z,185
2017-03-31T11:02:27.670Z,185
2017-03-31T11:03:36.890Z,180
2017-03-31T11:04:45.854Z,180
2017-03-31T11:05:54.814Z,185
2017-03-31T11:07:03.776Z,180
2017-03-31T11:08:12.741Z,175
2017-03-31T11:09:21.957Z,170
2017-03-31T11:10:30.930Z,170
2017-03-31T11:11:39.889Z,170
2017-03-31T11:12:48.853Z,170
2017-03-31T11:13:57.815Z,165
2017-03-31T11:15:07.028Z,170
2017-03-31T11:16:15.991Z,165
2017-03-31T11:17:24.957Z,165
2017-03-31T11:18:33.917Z,160
2017-03-31T11:19:42.877Z,160
2017-03-31T11:20:52.085Z,165
2017-03-31T11:22:01.047Z,160
2017-03-31T11:23:10.010Z,160
2017-03-31T11:24:18.973Z,165
2017-03-31T11:25:27.940Z,165
2017-03-31T11:26:37.153Z,170
2017-03-31T11:27:46.112Z,165
2017-03-31T11:28:55.081Z,170
2017-03-31T11:30:04.041Z,170
2017-03-31T11:31:13.008Z,175
2017-03-31T11:32:22.221Z,170
2017-03-31T11:33:31.185Z,170
2017-03-31T11:34:40.152Z,170
2017-03-31T11:35:49.114Z,170
2017-03-31T11:36:58.201Z,170
2017-03-31T11:38:07.420Z,170
2017-03-31T11:39:16.385Z,175
2017-03-31T11:40:25.352Z,170
2017-03-31T11:41:34.317Z,170
2017-03-31T11:42:43.276Z,170
2017-03-31T11:43:52.489Z,170
2017-03-31T11:45:01.451Z,170
2017-03-31T11:46:10.422Z,170
2017-03-31T11:47:19.387Z,170
2017-03-31T11:48:28.439Z,165
2017-03-31T11:49:37.650Z,165
2017-03-31T11:50:46.612Z,160
2017-03-31T11:51:55.666Z,160
2017-03-31T11:53:04.628Z,160
2017-03-31T11:54:13.589Z,160
2017-03-31T11:55:22.891Z,155
2017-03-31T11:56:31.853Z,155
2017-03-31T11:57:40.818Z,155
2017-03-31T11:58:49.779Z,160
2017-03-31T11:59:58.833Z,160
2017-03-31T12:01:08.045Z,160
2017-03-31T12:02:17.005Z,160
2017-03-31T12:03:25.967Z,160
2017-03-31T12:04:34.930Z,160
2017-03-31T12:05:43.897Z,160
2017-03-31T12:06:53.134Z,160
2017-03-31T12:08:02.100Z,155
2017-03-31T12:09:11.064Z,155
2017-03-31T12:10:20.024Z,155
2017-03-31T12:11:28.987Z,155
2017-03-31T12:12:38.202Z,155
2017-03-31T12:13:47.166Z,150
2017-03-31T12:14:56.299Z,150
2017-03-31T12:16:05.351Z,150
2017-03-31T12:17:14.316Z,150
2017-03-31T12:18:23.580Z,150
2017-03-31T12:19:32.542Z,150
2017-03-31T12:20:41.509Z,150
2017-03-31T12:21:50.476Z,150
2017-03-31T12:22:59.445Z,150
2017-03-31T12:24:09.068Z,150
2017-03-31T12:25:18.040Z,150
2017-03-31T12:26:27.042Z,145
2017-03-31T12:27:36.046Z,145
2017-03-31T12:28:45.008Z,145
2017-03-31T12:29:54.219Z,145
2017-03-31T12:31:03.185Z,145
2017-03-31T12:32:12.146Z,145
2017-03-31T12:33:21.430Z,145
2017-03-31T12:34:30.392Z,145
2017-03-31T12:35:39.606Z,150
2017-03-31T12:36:48.568Z,145
2017-03-31T12:37:57.857Z,150
2017-03-31T12:39:06.822Z,155
2017-03-31T12:40:15.790Z,150
2017-03-31T12:41:25.057Z,150
2017-03-31T12:42:34.024Z,155
2017-03-31T12:43:42.982Z,155
2017-03-31T12:44:51.946Z,155
2017-03-31T12:46:00.910Z,155
2017-03-31T12:47:10.121Z,155
2017-03-31T12:48:19.177Z,155
2017-03-31T12:49:28.139Z,155
2017-03-31T12:50:37.097Z,155
2017-03-31T12:51:46.068Z,155
2017-03-31T12:52:55.277Z,155
2017-03-31T12:54:04.236Z,160
2017-03-31T12:55:13.287Z,160
2017-03-31T12:56:22.254Z,160
2017-03-31T12:57:31.259Z,160
2017-03-31T12:58:40.475Z,155
2017-03-31T12:59:49.529Z,155
2017-03-31T13:00:58.496Z,155
2017-03-31T13:02:07.460Z,155
2017-03-31T13:03:16.423Z,155
2017-03-31T13:04:25.668Z,155
2017-03-31T13:05:34.627Z,155
2017-03-31T13:06:43.679Z,155
2017-03-31T13:07:52.650Z,150
2017-03-31T13:09:01.705Z,150
2017-03-31T13:10:10.921Z,150
2017-03-31T13:11:19.893Z,150
2017-03-31T13:12:28.870Z,150
2017-03-31T13:13:37.836Z,145
2017-03-31T13:14:46.895Z,145
2017-03-31T13:15:56.113Z,145
2017-03-31T13:17:05.398Z,145
2017-03-31T13:18:14.357Z,150
2017-03-31T13:19:23.320Z,150
2017-03-31T13:20:32.284Z,150
2017-03-31T13:21:41.504Z,150
2017-03-31T13:22:50.462Z,150
2017-03-31T13:23:59.425Z,150
2017-03-31T13:25:08.389Z,150
2017-03-31T13:26:17.676Z,150
2017-03-31T13:27:26.892Z,145
2017-03-31T13:28:35.854Z,150
2017-03-31T13:29:44.824Z,145
2017-03-31T13:30:53.785Z,145
2017-03-31T13:32:02.836Z,145
2017-03-31T13:33:12.102Z,145
2017-03-31T13:34:21.096Z,145
2017-03-31T13:35:30.069Z,145
2017-03-31T13:36:39.036Z,145
2017-03-31T13:37:48.006Z,145
2017-03-31T13:38:57.223Z,145
2017-03-31T13:40:06.189Z,145
2017-03-31T13:41:15.150Z,150
2017-03-31T13:42:24.110Z,145
2017-03-31T13:43:33.076Z,145
2017-03-31T13:44:42.289Z,145
2017-03-31T13:45:51.248Z,145
2017-03-31T13:47:00.219Z,145
2017-03-31T13:48:09.181Z,145
2017-03-31T13:49:18.141Z,145
2017-03-31T13:50:27.361Z,145
2017-03-31T13:51:36.321Z,145
2017-03-31T13:52:45.289Z,145
2017-03-31T13:53:54.254Z,145
2017-03-31T13:55:03.224Z,150
2017-03-31T13:56:12.441Z,150
2017-03-31T13:57:21.493Z,150
2017-03-31T13:58:30.457Z,145
2017-03-31T13:59:39.420Z,145
2017-03-31T14:00:48.382Z,145
2017-03-31T14:01:57.599Z,145
2017-03-31T14:03:06.566Z,145
2017-03-31T14:04:15.527Z,145
2017-03-31T14:05:24.577Z,145
2017-03-31T14:06:33.545Z,145
2017-03-31T14:07:42.806Z,140
2017-03-31T14:08:51.772Z,140
2017-03-31T14:10:00.741Z,135
2017-03-31T14:11:09.711Z,130
2017-03-31T14:12:18.677Z,135
2017-03-31T14:13:27.892Z,135
2017-03-31T14:14:37.685Z,130
2017-03-31T14:15:46.651Z,130
2017-03-31T14:16:55.610Z,130
2017-03-31T14:18:04.575Z,130
2017-03-31T14:19:13.836Z,135
2017-03-31T14:20:22.799Z,135
2017-03-31T14:21:31.767Z,135
2017-03-31T14:22:40.816Z,130
2017-03-31T14:23:50.107Z,125
2017-03-31T14:24:59.323Z,120
2017-03-31T14:26:08.289Z,120
2017-03-31T14:27:17.252Z,120
2017-03-31T14:28:26.213Z,120
2017-03-31T14:29:35.179Z,120
2017-03-31T14:30:44.480Z,115
2017-03-31T14:31:53.532Z,120
2017-03-31T14:33:02.587Z,120
2017-03-31T14:34:11.543Z,120
2017-03-31T14:35:20.682Z,120
2017-03-31T14:36:30.284Z,125
2017-03-31T14:37:39.246Z,120
2017-03-31T14:38:48.204Z,120
2017-03-31T14:39:57.177Z,120
2017-03-31T14:41:06.142Z,115
2017-03-31T14:42:15.360Z,115
2017-03-31T14:43:24.322Z,115
2017-03-31T14:44:33.288Z,110
2017-03-31T14:45:42.253Z,115
2017-03-31T14:46:51.223Z,115
2017-03-31T14:48:00.609Z,120
2017-03-31T14:49:09.579Z,135
2017-03-31T14:50:18.614Z,125
2017-03-31T14:51:27.582Z,115
2017-03-31T14:52:36.543Z,105
2017-03-31T14:53:45.809Z,100
2017-03-31T14:54:54.779Z,100
2017-03-31T14:56:04.288Z,95
2017-03-31T14:57:13.441Z,95
2017-03-31T14:58:22.601Z,95
2017-03-31T14:59:32.025Z,95
2017-03-31T15:00:41.307Z,95
2017-03-31T15:01:50.521Z,95
2017-03-31T15:02:59.645Z,90
2017-03-31T15:04:08.936Z,90
2017-03-31T15:05:20.858Z,90
2017-03-31T15:06:30.872Z,90
2017-03-31T15:07:40.415Z,90
2017-03-31T15:08:49.679Z,90
2017-03-31T15:09:59.244Z,90
2017-03-31T15:11:09.393Z,90
2017-03-31T15:12:18.445Z,90
2017-03-31T15:13:27.571Z,90
2017-03-31T15:14:36.747Z,90
2017-03-31T15:15:45.884Z,90
2017-03-31T15:16:55.618Z,90
2017-03-31T15:18:07.652Z,90
2017-03-31T15:19:16.615Z,90
2017-03-31T15:20:25.979Z,85
2017-03-31T15:21:35.168Z,90
2017-03-31T15:22:44.766Z,90
2017-03-31T15:23:54.613Z,90
2017-03-31T15:25:03.586Z,90
2017-03-31T15:26:12.725Z,90
2017-03-31T15:27:21.693Z,90
2017-03-31T15:28:30.991Z,85
2017-03-31T15:29:39.953Z,85
2017-03-31T15:30:48.994Z,85
2017-03-31T15:31:57.957Z,85
2017-03-31T15:33:06.928Z,90
2017-03-31T15:34:16.193Z,90
2017-03-31T15:35:25.159Z,95
2017-03-31T15:36:34.126Z,95
2017-03-31T15:37:43.089Z,95
2017-03-31T15:38:52.054Z,90
2017-03-31T15:40:01.596Z,90
2017-03-31T15:41:10.564Z,90
2017-03-31T15:42:19.528Z,85
2017-03-31T15:43:28.514Z,90
2017-03-31T15:44:37.479Z,85
2017-03-31T15:45:46.873Z,85
2017-03-31T15:46:55.846Z,80
2017-03-31T15:48:04.814Z,80
2017-03-31T15:49:14.236Z,80
2017-03-31T15:50:23.288Z,75
2017-03-31T15:51:32.592Z,75
2017-03-31T15:52:41.882Z,70
2017-03-31T15:53:50.861Z,70
2017-03-31T15:54:59.822Z,70
2017-03-31T15:56:08.792Z,65
2017-03-31T15:57:18.294Z,70
2017-03-31T15:58:27.306Z,70
2017-03-31T15:59:36.272Z,70
2017-03-31T16:00:45.328Z,70
2017-03-31T16:01:54.298Z,70
2017-03-31T16:03:03.509Z,70
2017-03-31T16:04:12.472Z,65
2017-03-31T16:05:21.436Z,65
2017-03-31T16:06:30.411Z,70
2017-03-31T16:07:39.400Z,65
2017-03-31T16:08:48.636Z,65
2017-03-31T16:09:57.627Z,65
2017-03-31T16:11:06.713Z,60
2017-03-31T16:12:15.731Z,60
2017-03-31T16:13:24.722Z,60
2017-03-31T16:14:34.097Z,60
2017-03-31T16:15:43.081Z,60
2017-03-31T16:16:52.063Z,55
2017-03-31T16:18:01.056Z,55
2017-03-31T16:19:10.043Z,55
2017-03-31T16:20:19.277Z,55